sensor_id;sensor_type;location;lat;lon;timestamp;P1;durP1;ratioP1;P2;durP2;ratioP2
71395;SDS011;59888;55.814;37.132;2024-01-15T00:01:21;12.30;;;5.25;;
71395;SDS011;59888;55.814;37.132;2024-01-15T00:03:46;10.73;;;4.78;;
71395;SDS011;59888;55.814;37.132;2024-01-15T00:06:12;12.05;;;5.28;;
71395;SDS011;59888;55.814;37.132;2024-01-15T00:08:38;11.73;;;5.45;;
71395;SDS011;59888;55.814;37.132;2024-01-15T00:11:04;10.98;;;5.10;;
71395;SDS011;59888;55.814;37.132;2024-01-15T00:13:30;14.23;;;4.97;;
71395;SDS011;59888;55.814;37.132;2024-01-15T00:15:56;11.05;;;4.85;;
71395;SDS011;59888;55.814;37.132;2024-01-15T00:18:23;10.05;;;4.78;;
71395;SDS011;59888;55.814;37.132;2024-01-15T00:20:48;9.88;;;5.00;;
71395;SDS011;59888;55.814;37.132;2024-01-15T00:23:14;10.95;;;5.00;;
71395;SDS011;59888;55.814;37.132;2024-01-15T00:25:40;11.65;;;5.30;;
71395;SDS011;59888;55.814;37.132;2024-01-15T00:28:06;11.35;;;5.07;;
71395;SDS011;59888;55.814;37.132;2024-01-15T00:30:32;11.80;;;5.38;;
71395;SDS011;59888;55.814;37.132;2024-01-15T00:32:58;9.57;;;4.70;;
71395;SDS011;59888;55.814;37.132;2024-01-15T00:35:24;11.73;;;5.05;;
71395;SDS011;59888;55.814;37.132;2024-01-15T00:37:50;13.63;;;5.63;;
71395;SDS011;59888;55.814;37.132;2024-01-15T00:40:17;10.45;;;4.55;;
71395;SDS011;59888;55.814;37.132;2024-01-15T00:42:43;11.43;;;4.68;;
71395;SDS011;59888;55.814;37.132;2024-01-15T00:45:09;15.00;;;5.65;;
71395;SDS011;59888;55.814;37.132;2024-01-15T00:47:35;10.88;;;4.90;;
71395;SDS011;59888;55.814;37.132;2024-01-15T00:50:00;12.35;;;5.75;;
71395;SDS011;59888;55.814;37.132;2024-01-15T00:52:28;13.55;;;5.55;;
71395;SDS011;59888;55.814;37.132;2024-01-15T00:54:55;12.32;;;5.40;;
71395;SDS011;59888;55.814;37.132;2024-01-15T00:57:20;11.82;;;5.57;;
71395;SDS011;59888;55.814;37.132;2024-01-15T00:59:46;10.90;;;5.18;;
71395;SDS011;59888;55.814;37.132;2024-01-15T01:02:13;12.25;;;5.68;;
71395;SDS011;59888;55.814;37.132;2024-01-15T01:04:39;14.95;;;6.13;;
71395;SDS011;59888;55.814;37.132;2024-01-15T01:07:05;11.63;;;5.25;;
71395;SDS011;59888;55.814;37.132;2024-01-15T01:09:32;13.48;;;5.70;;
71395;SDS011;59888;55.814;37.132;2024-01-15T01:11:58;12.38;;;5.93;;
71395;SDS011;59888;55.814;37.132;2024-01-15T01:14:23;13.38;;;5.70;;
71395;SDS011;59888;55.814;37.132;2024-01-15T01:16:51;12.45;;;5.78;;
71395;SDS011;59888;55.814;37.132;2024-01-15T01:19:16;12.63;;;5.70;;
71395;SDS011;59888;55.814;37.132;2024-01-15T01:21:42;13.27;;;5.15;;
71395;SDS011;59888;55.814;37.132;2024-01-15T01:24:08;12.18;;;6.07;;
71395;SDS011;59888;55.814;37.132;2024-01-15T01:26:34;17.27;;;5.70;;
71395;SDS011;59888;55.814;37.132;2024-01-15T01:28:59;14.90;;;5.88;;
71395;SDS011;59888;55.814;37.132;2024-01-15T01:31:27;13.75;;;5.82;;
71395;SDS011;59888;55.814;37.132;2024-01-15T01:33:53;13.30;;;6.07;;
71395;SDS011;59888;55.814;37.132;2024-01-15T01:36:18;12.23;;;5.68;;
71395;SDS011;59888;55.814;37.132;2024-01-15T01:38:44;11.45;;;4.88;;
71395;SDS011;59888;55.814;37.132;2024-01-15T01:41:10;13.77;;;6.15;;
71395;SDS011;59888;55.814;37.132;2024-01-15T01:43:36;13.20;;;5.82;;
71395;SDS011;59888;55.814;37.132;2024-01-15T01:46:02;15.60;;;6.30;;
71395;SDS011;59888;55.814;37.132;2024-01-15T01:48:28;14.85;;;5.82;;
71395;SDS011;59888;55.814;37.132;2024-01-15T01:50:54;13.98;;;6.25;;
71395;SDS011;59888;55.814;37.132;2024-01-15T01:53:22;12.13;;;6.35;;
71395;SDS011;59888;55.814;37.132;2024-01-15T01:55:48;13.98;;;6.20;;
71395;SDS011;59888;55.814;37.132;2024-01-15T01:58:14;15.50;;;6.80;;
71395;SDS011;59888;55.814;37.132;2024-01-15T02:00:40;15.85;;;6.75;;
71395;SDS011;59888;55.814;37.132;2024-01-15T02:03:06;14.38;;;5.57;;
71395;SDS011;59888;55.814;37.132;2024-01-15T02:05:32;10.80;;;5.60;;
71395;SDS011;59888;55.814;37.132;2024-01-15T02:07:58;15.63;;;7.18;;
71395;SDS011;59888;55.814;37.132;2024-01-15T02:10:24;12.80;;;5.63;;
71395;SDS011;59888;55.814;37.132;2024-01-15T02:12:50;14.45;;;6.72;;
71395;SDS011;59888;55.814;37.132;2024-01-15T02:15:16;14.85;;;6.78;;
71395;SDS011;59888;55.814;37.132;2024-01-15T02:18:00;13.77;;;6.82;;
71395;SDS011;59888;55.814;37.132;2024-01-15T02:20:28;15.55;;;6.38;;
71395;SDS011;59888;55.814;37.132;2024-01-15T02:22:54;13.95;;;6.03;;
71395;SDS011;59888;55.814;37.132;2024-01-15T02:25:19;14.38;;;5.95;;
71395;SDS011;59888;55.814;37.132;2024-01-15T02:27:45;13.73;;;6.57;;
71395;SDS011;59888;55.814;37.132;2024-01-15T02:30:12;12.73;;;6.20;;
71395;SDS011;59888;55.814;37.132;2024-01-15T02:32:38;17.27;;;7.43;;
71395;SDS011;59888;55.814;37.132;2024-01-15T02:35:04;14.48;;;6.55;;
71395;SDS011;59888;55.814;37.132;2024-01-15T02:37:30;15.00;;;6.72;;
71395;SDS011;59888;55.814;37.132;2024-01-15T02:39:55;12.93;;;5.68;;
71395;SDS011;59888;55.814;37.132;2024-01-15T02:42:21;14.27;;;6.80;;
71395;SDS011;59888;55.814;37.132;2024-01-15T02:44:46;14.02;;;7.07;;
71395;SDS011;59888;55.814;37.132;2024-01-15T02:47:14;16.08;;;6.10;;
71395;SDS011;59888;55.814;37.132;2024-01-15T02:49:39;13.85;;;6.35;;
71395;SDS011;59888;55.814;37.132;2024-01-15T02:52:05;17.58;;;7.00;;
71395;SDS011;59888;55.814;37.132;2024-01-15T02:54:30;16.67;;;6.60;;
71395;SDS011;59888;55.814;37.132;2024-01-15T02:56:56;15.77;;;6.55;;
71395;SDS011;59888;55.814;37.132;2024-01-15T02:59:22;14.98;;;6.30;;
71395;SDS011;59888;55.814;37.132;2024-01-15T03:01:48;15.68;;;6.28;;
71395;SDS011;59888;55.814;37.132;2024-01-15T03:04:14;14.93;;;6.43;;
71395;SDS011;59888;55.814;37.132;2024-01-15T03:06:40;18.17;;;7.35;;
71395;SDS011;59888;55.814;37.132;2024-01-15T03:09:05;13.82;;;6.38;;
71395;SDS011;59888;55.814;37.132;2024-01-15T03:11:37;14.63;;;6.38;;
71395;SDS011;59888;55.814;37.132;2024-01-15T03:14:04;13.73;;;6.40;;
71395;SDS011;59888;55.814;37.132;2024-01-15T03:16:29;17.77;;;7.10;;
71395;SDS011;59888;55.814;37.132;2024-01-15T03:18:55;12.55;;;6.10;;
71395;SDS011;59888;55.814;37.132;2024-01-15T03:21:21;14.77;;;6.32;;
71395;SDS011;59888;55.814;37.132;2024-01-15T03:23:46;13.13;;;6.82;;
71395;SDS011;59888;55.814;37.132;2024-01-15T03:26:12;16.40;;;6.57;;
71395;SDS011;59888;55.814;37.132;2024-01-15T03:28:37;16.05;;;6.65;;
71395;SDS011;59888;55.814;37.132;2024-01-15T03:31:03;14.23;;;6.43;;
71395;SDS011;59888;55.814;37.132;2024-01-15T03:33:29;16.23;;;7.38;;
71395;SDS011;59888;55.814;37.132;2024-01-15T03:35:55;15.73;;;6.97;;
71395;SDS011;59888;55.814;37.132;2024-01-15T03:38:22;16.92;;;6.93;;
71395;SDS011;59888;55.814;37.132;2024-01-15T03:40:48;15.32;;;6.93;;
71395;SDS011;59888;55.814;37.132;2024-01-15T03:43:13;16.48;;;7.22;;
71395;SDS011;59888;55.814;37.132;2024-01-15T03:45:39;19.80;;;8.27;;
71395;SDS011;59888;55.814;37.132;2024-01-15T03:48:05;17.25;;;7.50;;
71395;SDS011;59888;55.814;37.132;2024-01-15T03:50:31;15.07;;;7.10;;
71395;SDS011;59888;55.814;37.132;2024-01-15T03:52:56;18.13;;;7.80;;
71395;SDS011;59888;55.814;37.132;2024-01-15T03:55:22;16.73;;;6.75;;
71395;SDS011;59888;55.814;37.132;2024-01-15T03:57:48;16.58;;;7.22;;
71395;SDS011;59888;55.814;37.132;2024-01-15T04:00:14;17.60;;;8.13;;
71395;SDS011;59888;55.814;37.132;2024-01-15T04:02:40;19.42;;;7.57;;
71395;SDS011;59888;55.814;37.132;2024-01-15T04:05:05;17.63;;;7.07;;
71395;SDS011;59888;55.814;37.132;2024-01-15T04:07:31;16.67;;;7.07;;
71395;SDS011;59888;55.814;37.132;2024-01-15T04:09:57;19.33;;;7.97;;
71395;SDS011;59888;55.814;37.132;2024-01-15T04:12:23;17.13;;;7.63;;
71395;SDS011;59888;55.814;37.132;2024-01-15T04:14:48;17.48;;;7.43;;
71395;SDS011;59888;55.814;37.132;2024-01-15T04:17:16;16.10;;;7.18;;
71395;SDS011;59888;55.814;37.132;2024-01-15T04:19:43;16.45;;;7.63;;
71395;SDS011;59888;55.814;37.132;2024-01-15T04:22:09;18.13;;;7.82;;
71395;SDS011;59888;55.814;37.132;2024-01-15T04:24:35;18.23;;;8.40;;
71395;SDS011;59888;55.814;37.132;2024-01-15T04:27:01;14.10;;;7.25;;
71395;SDS011;59888;55.814;37.132;2024-01-15T04:29:26;15.88;;;6.80;;
71395;SDS011;59888;55.814;37.132;2024-01-15T04:31:53;19.25;;;7.90;;
71395;SDS011;59888;55.814;37.132;2024-01-15T04:34:18;17.88;;;7.82;;
71395;SDS011;59888;55.814;37.132;2024-01-15T04:36:44;19.13;;;8.05;;
71395;SDS011;59888;55.814;37.132;2024-01-15T04:39:11;16.35;;;7.65;;
71395;SDS011;59888;55.814;37.132;2024-01-15T04:41:37;17.63;;;7.47;;
71395;SDS011;59888;55.814;37.132;2024-01-15T04:44:02;17.33;;;7.60;;
71395;SDS011;59888;55.814;37.132;2024-01-15T04:46:28;16.75;;;7.90;;
71395;SDS011;59888;55.814;37.132;2024-01-15T04:48:54;18.17;;;8.32;;
71395;SDS011;59888;55.814;37.132;2024-01-15T04:51:20;18.63;;;8.05;;
71395;SDS011;59888;55.814;37.132;2024-01-15T04:53:46;18.50;;;8.30;;
71395;SDS011;59888;55.814;37.132;2024-01-15T04:56:12;19.42;;;7.80;;
71395;SDS011;59888;55.814;37.132;2024-01-15T04:58:37;16.38;;;7.85;;
71395;SDS011;59888;55.814;37.132;2024-01-15T05:01:03;19.52;;;7.55;;
71395;SDS011;59888;55.814;37.132;2024-01-15T05:03:29;21.33;;;8.27;;
71395;SDS011;59888;55.814;37.132;2024-01-15T05:05:55;19.10;;;8.63;;
71395;SDS011;59888;55.814;37.132;2024-01-15T05:08:20;20.17;;;8.52;;
71395;SDS011;59888;55.814;37.132;2024-01-15T05:10:47;15.82;;;7.60;;
71395;SDS011;59888;55.814;37.132;2024-01-15T05:13:12;18.30;;;8.90;;
71395;SDS011;59888;55.814;37.132;2024-01-15T05:15:39;17.63;;;7.55;;
71395;SDS011;59888;55.814;37.132;2024-01-15T05:18:04;21.55;;;8.55;;
71395;SDS011;59888;55.814;37.132;2024-01-15T05:20:30;15.80;;;7.53;;
71395;SDS011;59888;55.814;37.132;2024-01-15T05:22:56;20.77;;;8.00;;
71395;SDS011;59888;55.814;37.132;2024-01-15T05:25:22;19.90;;;8.35;;
71395;SDS011;59888;55.814;37.132;2024-01-15T05:27:48;20.95;;;8.02;;
71395;SDS011;59888;55.814;37.132;2024-01-15T05:30:14;21.58;;;8.55;;
71395;SDS011;59888;55.814;37.132;2024-01-15T05:32:40;16.98;;;8.52;;
71395;SDS011;59888;55.814;37.132;2024-01-15T05:35:05;17.13;;;7.82;;
71395;SDS011;59888;55.814;37.132;2024-01-15T05:37:31;18.83;;;7.88;;
71395;SDS011;59888;55.814;37.132;2024-01-15T05:39:57;17.05;;;8.10;;
71395;SDS011;59888;55.814;37.132;2024-01-15T05:42:23;17.15;;;7.72;;
71395;SDS011;59888;55.814;37.132;2024-01-15T05:44:49;19.23;;;8.57;;
71395;SDS011;59888;55.814;37.132;2024-01-15T05:47:15;20.35;;;8.40;;
71395;SDS011;59888;55.814;37.132;2024-01-15T05:49:41;18.00;;;8.77;;
71395;SDS011;59888;55.814;37.132;2024-01-15T05:52:07;22.35;;;8.93;;
71395;SDS011;59888;55.814;37.132;2024-01-15T05:54:33;19.85;;;8.77;;
71395;SDS011;59888;55.814;37.132;2024-01-15T05:56:59;18.77;;;7.55;;
71395;SDS011;59888;55.814;37.132;2024-01-15T05:59:24;20.65;;;9.00;;
71395;SDS011;59888;55.814;37.132;2024-01-15T06:01:51;20.33;;;8.32;;
71395;SDS011;59888;55.814;37.132;2024-01-15T06:04:16;18.10;;;8.55;;
71395;SDS011;59888;55.814;37.132;2024-01-15T06:06:42;17.70;;;8.25;;
71395;SDS011;59888;55.814;37.132;2024-01-15T06:09:08;17.92;;;8.27;;
71395;SDS011;59888;55.814;37.132;2024-01-15T06:11:34;19.80;;;8.75;;
71395;SDS011;59888;55.814;37.132;2024-01-15T06:14:01;16.00;;;7.82;;
71395;SDS011;59888;55.814;37.132;2024-01-15T06:16:26;19.63;;;8.07;;
71395;SDS011;59888;55.814;37.132;2024-01-15T06:18:52;18.98;;;8.32;;
71395;SDS011;59888;55.814;37.132;2024-01-15T06:21:18;18.95;;;8.90;;
71395;SDS011;59888;55.814;37.132;2024-01-15T06:23:44;16.85;;;8.38;;
71395;SDS011;59888;55.814;37.132;2024-01-15T06:26:11;19.02;;;8.35;;
71395;SDS011;59888;55.814;37.132;2024-01-15T06:28:37;15.40;;;7.22;;
71395;SDS011;59888;55.814;37.132;2024-01-15T06:31:03;19.40;;;8.07;;
71395;SDS011;59888;55.814;37.132;2024-01-15T06:33:29;15.55;;;7.47;;
71395;SDS011;59888;55.814;37.132;2024-01-15T06:35:54;18.50;;;8.75;;
71395;SDS011;59888;55.814;37.132;2024-01-15T06:38:21;18.70;;;8.55;;
71395;SDS011;59888;55.814;37.132;2024-01-15T06:40:47;18.15;;;7.70;;
71395;SDS011;59888;55.814;37.132;2024-01-15T06:43:14;20.90;;;8.57;;
71395;SDS011;59888;55.814;37.132;2024-01-15T06:45:43;18.23;;;8.02;;
71395;SDS011;59888;55.814;37.132;2024-01-15T06:48:09;17.20;;;7.30;;
71395;SDS011;59888;55.814;37.132;2024-01-15T06:50:35;18.77;;;8.02;;
71395;SDS011;59888;55.814;37.132;2024-01-15T06:53:01;20.25;;;8.07;;
71395;SDS011;59888;55.814;37.132;2024-01-15T07:22:44;19.85;;;8.50;;
71395;SDS011;59888;55.814;37.132;2024-01-15T07:25:10;18.35;;;8.18;;
71395;SDS011;59888;55.814;37.132;2024-01-15T07:27:38;18.02;;;7.90;;
71395;SDS011;59888;55.814;37.132;2024-01-15T07:32:29;18.00;;;7.50;;
71395;SDS011;59888;55.814;37.132;2024-01-15T07:34:56;16.55;;;7.45;;
71395;SDS011;59888;55.814;37.132;2024-01-15T07:37:22;17.75;;;8.57;;
71395;SDS011;59888;55.814;37.132;2024-01-15T07:39:49;17.63;;;7.93;;
71395;SDS011;59888;55.814;37.132;2024-01-15T07:42:15;21.60;;;9.13;;
71395;SDS011;59888;55.814;37.132;2024-01-15T07:44:40;19.63;;;8.88;;
71395;SDS011;59888;55.814;37.132;2024-01-15T07:47:06;19.30;;;8.20;;
71395;SDS011;59888;55.814;37.132;2024-01-15T07:49:34;17.38;;;7.93;;
71395;SDS011;59888;55.814;37.132;2024-01-15T07:52:00;14.57;;;7.15;;
71395;SDS011;59888;55.814;37.132;2024-01-15T07:54:26;16.73;;;7.70;;
71395;SDS011;59888;55.814;37.132;2024-01-15T07:56:58;17.08;;;7.82;;
71395;SDS011;59888;55.814;37.132;2024-01-15T07:59:24;19.48;;;8.05;;
71395;SDS011;59888;55.814;37.132;2024-01-15T08:01:52;13.80;;;6.75;;
71395;SDS011;59888;55.814;37.132;2024-01-15T08:04:18;19.02;;;8.55;;
71395;SDS011;59888;55.814;37.132;2024-01-15T08:06:44;16.50;;;7.35;;
71395;SDS011;59888;55.814;37.132;2024-01-15T08:09:12;16.63;;;7.80;;
71395;SDS011;59888;55.814;37.132;2024-01-15T08:11:40;16.23;;;8.38;;
71395;SDS011;59888;55.814;37.132;2024-01-15T08:14:09;17.80;;;8.23;;
71395;SDS011;59888;55.814;37.132;2024-01-15T08:16:35;17.83;;;8.50;;
71395;SDS011;59888;55.814;37.132;2024-01-15T08:19:01;16.13;;;7.13;;
71395;SDS011;59888;55.814;37.132;2024-01-15T08:21:27;20.98;;;8.13;;
71395;SDS011;59888;55.814;37.132;2024-01-15T08:23:57;18.63;;;8.43;;
71395;SDS011;59888;55.814;37.132;2024-01-15T08:26:23;15.75;;;6.72;;
71395;SDS011;59888;55.814;37.132;2024-01-15T08:28:49;17.08;;;8.02;;
71395;SDS011;59888;55.814;37.132;2024-01-15T08:31:16;17.58;;;8.10;;
71395;SDS011;59888;55.814;37.132;2024-01-15T08:33:42;19.08;;;8.18;;
71395;SDS011;59888;55.814;37.132;2024-01-15T08:36:09;19.60;;;8.55;;
71395;SDS011;59888;55.814;37.132;2024-01-15T08:38:36;14.57;;;7.47;;
71395;SDS011;59888;55.814;37.132;2024-01-15T08:41:01;17.05;;;7.35;;
71395;SDS011;59888;55.814;37.132;2024-01-15T08:43:27;14.25;;;7.13;;
71395;SDS011;59888;55.814;37.132;2024-01-15T08:45:55;15.05;;;7.70;;
71395;SDS011;59888;55.814;37.132;2024-01-15T08:48:21;15.43;;;7.18;;
71395;SDS011;59888;55.814;37.132;2024-01-15T08:50:46;16.08;;;7.57;;
71395;SDS011;59888;55.814;37.132;2024-01-15T08:53:13;13.98;;;7.00;;
71395;SDS011;59888;55.814;37.132;2024-01-15T08:55:39;16.17;;;6.68;;
71395;SDS011;59888;55.814;37.132;2024-01-15T08:58:05;14.25;;;7.20;;
71395;SDS011;59888;55.814;37.132;2024-01-15T09:00:32;17.00;;;8.07;;
71395;SDS011;59888;55.814;37.132;2024-01-15T09:02:58;16.73;;;7.80;;
71395;SDS011;59888;55.814;37.132;2024-01-15T09:05:23;14.07;;;6.80;;
71395;SDS011;59888;55.814;37.132;2024-01-15T09:07:50;14.05;;;6.65;;
71395;SDS011;59888;55.814;37.132;2024-01-15T09:10:17;16.83;;;7.65;;
71395;SDS011;59888;55.814;37.132;2024-01-15T09:12:43;17.48;;;7.50;;
71395;SDS011;59888;55.814;37.132;2024-01-15T09:15:09;15.88;;;7.20;;
71395;SDS011;59888;55.814;37.132;2024-01-15T09:17:35;17.05;;;7.43;;
71395;SDS011;59888;55.814;37.132;2024-01-15T09:20:00;14.77;;;7.30;;
71395;SDS011;59888;55.814;37.132;2024-01-15T09:22:27;14.07;;;6.40;;
71395;SDS011;59888;55.814;37.132;2024-01-15T09:24:52;14.13;;;6.72;;
71395;SDS011;59888;55.814;37.132;2024-01-15T09:27:18;16.38;;;8.07;;
71395;SDS011;59888;55.814;37.132;2024-01-15T09:29:44;14.05;;;6.68;;
71395;SDS011;59888;55.814;37.132;2024-01-15T09:32:11;14.60;;;7.32;;
71395;SDS011;59888;55.814;37.132;2024-01-15T09:34:38;17.95;;;7.70;;
71395;SDS011;59888;55.814;37.132;2024-01-15T09:37:04;12.82;;;6.43;;
71395;SDS011;59888;55.814;37.132;2024-01-15T09:39:30;15.40;;;7.25;;
71395;SDS011;59888;55.814;37.132;2024-01-15T09:41:56;12.77;;;6.50;;
71395;SDS011;59888;55.814;37.132;2024-01-15T09:44:22;15.50;;;7.15;;
71395;SDS011;59888;55.814;37.132;2024-01-15T09:46:47;13.73;;;6.80;;
71395;SDS011;59888;55.814;37.132;2024-01-15T09:49:16;13.25;;;6.55;;
71395;SDS011;59888;55.814;37.132;2024-01-15T09:51:42;14.73;;;6.88;;
71395;SDS011;59888;55.814;37.132;2024-01-15T09:54:08;16.17;;;7.97;;
71395;SDS011;59888;55.814;37.132;2024-01-15T09:56:34;15.90;;;7.25;;
71395;SDS011;59888;55.814;37.132;2024-01-15T09:59:01;13.13;;;6.80;;
71395;SDS011;59888;55.814;37.132;2024-01-15T10:01:29;14.68;;;7.28;;
71395;SDS011;59888;55.814;37.132;2024-01-15T10:03:56;12.57;;;6.35;;
71395;SDS011;59888;55.814;37.132;2024-01-15T10:06:22;13.20;;;6.90;;
71395;SDS011;59888;55.814;37.132;2024-01-15T10:08:49;11.23;;;6.15;;
71395;SDS011;59888;55.814;37.132;2024-01-15T10:11:15;14.43;;;6.82;;
71395;SDS011;59888;55.814;37.132;2024-01-15T10:13:46;13.60;;;6.97;;
71395;SDS011;59888;55.814;37.132;2024-01-15T10:16:12;13.80;;;6.80;;
71395;SDS011;59888;55.814;37.132;2024-01-15T10:18:37;15.18;;;7.43;;
71395;SDS011;59888;55.814;37.132;2024-01-15T10:21:06;15.27;;;6.97;;
71395;SDS011;59888;55.814;37.132;2024-01-15T10:23:33;14.15;;;7.03;;
71395;SDS011;59888;55.814;37.132;2024-01-15T10:25:59;14.55;;;7.07;;
71395;SDS011;59888;55.814;37.132;2024-01-15T10:28:26;14.73;;;7.28;;
71395;SDS011;59888;55.814;37.132;2024-01-15T10:30:53;16.35;;;7.00;;
71395;SDS011;59888;55.814;37.132;2024-01-15T10:33:21;17.23;;;7.13;;
71395;SDS011;59888;55.814;37.132;2024-01-15T10:35:51;15.88;;;6.90;;
71395;SDS011;59888;55.814;37.132;2024-01-15T10:38:18;14.98;;;6.88;;
71395;SDS011;59888;55.814;37.132;2024-01-15T10:40:50;13.77;;;6.80;;
71395;SDS011;59888;55.814;37.132;2024-01-15T10:43:18;14.52;;;7.28;;
71395;SDS011;59888;55.814;37.132;2024-01-15T10:45:47;16.02;;;6.85;;
71395;SDS011;59888;55.814;37.132;2024-01-15T10:48:13;15.50;;;7.50;;
71395;SDS011;59888;55.814;37.132;2024-01-15T10:50:40;14.30;;;7.10;;
71395;SDS011;59888;55.814;37.132;2024-01-15T10:53:06;14.45;;;7.35;;
71395;SDS011;59888;55.814;37.132;2024-01-15T10:55:32;12.70;;;6.93;;
71395;SDS011;59888;55.814;37.132;2024-01-15T10:58:02;13.18;;;6.82;;
71395;SDS011;59888;55.814;37.132;2024-01-15T11:00:29;15.05;;;7.47;;
71395;SDS011;59888;55.814;37.132;2024-01-15T11:02:55;14.38;;;7.38;;
71395;SDS011;59888;55.814;37.132;2024-01-15T11:05:22;15.93;;;7.13;;
71395;SDS011;59888;55.814;37.132;2024-01-15T11:07:48;16.83;;;7.88;;
71395;SDS011;59888;55.814;37.132;2024-01-15T11:13:03;13.68;;;7.35;;
71395;SDS011;59888;55.814;37.132;2024-01-15T11:15:28;13.68;;;6.38;;
71395;SDS011;59888;55.814;37.132;2024-01-15T11:17:58;12.98;;;6.40;;
71395;SDS011;59888;55.814;37.132;2024-01-15T11:20:26;14.52;;;7.68;;
71395;SDS011;59888;55.814;37.132;2024-01-15T11:22:52;19.38;;;8.52;;
71395;SDS011;59888;55.814;37.132;2024-01-15T11:25:18;15.48;;;7.07;;
71395;SDS011;59888;55.814;37.132;2024-01-15T11:27:46;14.95;;;7.20;;
71395;SDS011;59888;55.814;37.132;2024-01-15T11:30:24;13.63;;;7.10;;
71395;SDS011;59888;55.814;37.132;2024-01-15T11:32:52;13.13;;;5.85;;
71395;SDS011;59888;55.814;37.132;2024-01-15T11:35:17;14.57;;;7.18;;
71395;SDS011;59888;55.814;37.132;2024-01-15T11:40:20;14.70;;;7.25;;
71395;SDS011;59888;55.814;37.132;2024-01-15T11:42:46;16.58;;;7.68;;
71395;SDS011;59888;55.814;37.132;2024-01-15T11:45:16;15.27;;;7.32;;
71395;SDS011;59888;55.814;37.132;2024-01-15T11:50:30;14.63;;;7.15;;
71395;SDS011;59888;55.814;37.132;2024-01-15T11:53:01;17.48;;;7.10;;
71395;SDS011;59888;55.814;37.132;2024-01-15T11:55:28;15.68;;;7.90;;
71395;SDS011;59888;55.814;37.132;2024-01-15T11:57:55;15.80;;;7.35;;
71395;SDS011;59888;55.814;37.132;2024-01-15T12:00:21;16.85;;;7.45;;
71395;SDS011;59888;55.814;37.132;2024-01-15T12:02:47;14.35;;;7.40;;
71395;SDS011;59888;55.814;37.132;2024-01-15T12:05:14;17.45;;;7.80;;
71395;SDS011;59888;55.814;37.132;2024-01-15T12:07:42;15.70;;;7.75;;
71395;SDS011;59888;55.814;37.132;2024-01-15T12:10:08;15.35;;;7.20;;
71395;SDS011;59888;55.814;37.132;2024-01-15T12:12:47;15.95;;;7.32;;
71395;SDS011;59888;55.814;37.132;2024-01-15T12:15:15;14.13;;;6.82;;
71395;SDS011;59888;55.814;37.132;2024-01-15T12:17:41;21.77;;;7.78;;
71395;SDS011;59888;55.814;37.132;2024-01-15T12:20:07;15.65;;;7.60;;
71395;SDS011;59888;55.814;37.132;2024-01-15T12:22:34;15.70;;;7.43;;
71395;SDS011;59888;55.814;37.132;2024-01-15T12:25:00;14.65;;;7.38;;
71395;SDS011;59888;55.814;37.132;2024-01-15T12:27:25;17.02;;;7.85;;
71395;SDS011;59888;55.814;37.132;2024-01-15T12:29:52;19.30;;;8.35;;
71395;SDS011;59888;55.814;37.132;2024-01-15T12:32:18;16.45;;;7.68;;
71395;SDS011;59888;55.814;37.132;2024-01-15T12:34:44;16.48;;;7.60;;
71395;SDS011;59888;55.814;37.132;2024-01-15T12:37:10;17.83;;;7.75;;
71395;SDS011;59888;55.814;37.132;2024-01-15T12:39:37;16.42;;;7.55;;
71395;SDS011;59888;55.814;37.132;2024-01-15T12:42:03;16.63;;;7.35;;
71395;SDS011;59888;55.814;37.132;2024-01-15T12:44:30;15.68;;;8.20;;
71395;SDS011;59888;55.814;37.132;2024-01-15T12:46:56;16.50;;;7.97;;
71395;SDS011;59888;55.814;37.132;2024-01-15T12:49:23;13.93;;;7.18;;
71395;SDS011;59888;55.814;37.132;2024-01-15T12:51:56;15.82;;;7.97;;
71395;SDS011;59888;55.814;37.132;2024-01-15T12:54:22;19.38;;;8.38;;
71395;SDS011;59888;55.814;37.132;2024-01-15T12:56:49;17.27;;;7.97;;
71395;SDS011;59888;55.814;37.132;2024-01-15T12:59:16;17.08;;;8.60;;
71395;SDS011;59888;55.814;37.132;2024-01-15T13:01:41;17.55;;;8.70;;
71395;SDS011;59888;55.814;37.132;2024-01-15T13:04:07;17.40;;;7.78;;
71395;SDS011;59888;55.814;37.132;2024-01-15T13:06:36;16.80;;;7.90;;
71395;SDS011;59888;55.814;37.132;2024-01-15T13:09:05;17.73;;;8.90;;
71395;SDS011;59888;55.814;37.132;2024-01-15T13:11:31;15.05;;;7.60;;
71395;SDS011;59888;55.814;37.132;2024-01-15T13:13:58;17.27;;;8.15;;
71395;SDS011;59888;55.814;37.132;2024-01-15T13:16:23;18.42;;;8.20;;
71395;SDS011;59888;55.814;37.132;2024-01-15T13:18:52;17.02;;;8.13;;
71395;SDS011;59888;55.814;37.132;2024-01-15T13:21:19;17.83;;;8.40;;
71395;SDS011;59888;55.814;37.132;2024-01-15T13:23:44;18.67;;;8.63;;
71395;SDS011;59888;55.814;37.132;2024-01-15T13:26:10;18.02;;;8.65;;
71395;SDS011;59888;55.814;37.132;2024-01-15T13:28:36;20.17;;;8.75;;
71395;SDS011;59888;55.814;37.132;2024-01-15T13:31:02;16.27;;;8.32;;
71395;SDS011;59888;55.814;37.132;2024-01-15T13:33:27;16.30;;;7.63;;
71395;SDS011;59888;55.814;37.132;2024-01-15T13:35:53;17.27;;;8.00;;
71395;SDS011;59888;55.814;37.132;2024-01-15T13:38:19;18.35;;;8.63;;
71395;SDS011;59888;55.814;37.132;2024-01-15T13:40:44;18.45;;;8.25;;
71395;SDS011;59888;55.814;37.132;2024-01-15T13:43:11;15.50;;;8.05;;
71395;SDS011;59888;55.814;37.132;2024-01-15T13:45:36;15.80;;;7.65;;
71395;SDS011;59888;55.814;37.132;2024-01-15T13:48:04;19.65;;;9.10;;
71395;SDS011;59888;55.814;37.132;2024-01-15T13:50:31;18.77;;;9.00;;
71395;SDS011;59888;55.814;37.132;2024-01-15T13:52:57;22.42;;;9.13;;
71395;SDS011;59888;55.814;37.132;2024-01-15T13:55:22;21.73;;;8.82;;
71395;SDS011;59888;55.814;37.132;2024-01-15T13:57:50;14.55;;;7.28;;
71395;SDS011;59888;55.814;37.132;2024-01-15T14:00:27;15.80;;;8.18;;
71395;SDS011;59888;55.814;37.132;2024-01-15T14:06:10;16.60;;;8.45;;
71395;SDS011;59888;55.814;37.132;2024-01-15T14:08:36;17.60;;;8.57;;
71395;SDS011;59888;55.814;37.132;2024-01-15T14:11:03;15.90;;;7.88;;
71395;SDS011;59888;55.814;37.132;2024-01-15T14:13:31;19.25;;;8.85;;
71395;SDS011;59888;55.814;37.132;2024-01-15T14:15:57;17.30;;;7.97;;
71395;SDS011;59888;55.814;37.132;2024-01-15T14:18:23;17.00;;;8.25;;
71395;SDS011;59888;55.814;37.132;2024-01-15T14:20:49;17.25;;;8.20;;
71395;SDS011;59888;55.814;37.132;2024-01-15T14:23:15;17.73;;;8.18;;
71395;SDS011;59888;55.814;37.132;2024-01-15T14:25:40;18.98;;;9.40;;
71395;SDS011;59888;55.814;37.132;2024-01-15T14:28:07;17.42;;;8.05;;
71395;SDS011;59888;55.814;37.132;2024-01-15T14:30:33;17.58;;;8.02;;
71395;SDS011;59888;55.814;37.132;2024-01-15T14:32:58;16.35;;;8.25;;
71395;SDS011;59888;55.814;37.132;2024-01-15T14:35:24;16.85;;;8.40;;
71395;SDS011;59888;55.814;37.132;2024-01-15T14:37:50;16.50;;;8.25;;
71395;SDS011;59888;55.814;37.132;2024-01-15T14:40:16;15.95;;;7.70;;
71395;SDS011;59888;55.814;37.132;2024-01-15T14:42:42;17.92;;;8.30;;
71395;SDS011;59888;55.814;37.132;2024-01-15T14:45:07;17.33;;;8.25;;
71395;SDS011;59888;55.814;37.132;2024-01-15T14:47:39;15.40;;;7.95;;
71395;SDS011;59888;55.814;37.132;2024-01-15T14:50:07;18.17;;;8.35;;
71395;SDS011;59888;55.814;37.132;2024-01-15T14:52:32;17.08;;;8.15;;
71395;SDS011;59888;55.814;37.132;2024-01-15T14:54:59;16.63;;;8.02;;
71395;SDS011;59888;55.814;37.132;2024-01-15T14:57:26;16.20;;;7.95;;